createdAt,value
2023-03-11T00:00:40.317Z,92959.00
2023-03-11T00:04:39.945Z,92953.00
2023-03-11T00:08:39.908Z,92947.00
2023-03-11T00:12:39.871Z,92953.00
2023-03-11T00:16:39.916Z,92959.00
2023-03-11T00:20:39.805Z,92969.00
2023-03-11T00:24:39.785Z,92963.00
2023-03-11T00:28:39.743Z,92963.00
2023-03-11T00:32:39.805Z,92963.00
2023-03-11T00:36:39.667Z,92969.00
2023-03-11T00:40:39.636Z,92967.00
2023-03-11T00:44:39.594Z,92989.00
2023-03-11T00:48:39.570Z,92989.00
2023-03-11T00:52:39.531Z,92983.00
2023-03-11T00:56:39.514Z,92977.00
2023-03-11T01:00:39.444Z,92973.00
2023-03-11T01:04:39.466Z,92977.00
2023-03-11T01:08:39.419Z,92985.00
2023-03-11T01:12:39.340Z,92983.00
2023-03-11T01:16:39.275Z,92983.00
2023-03-11T01:20:39.285Z,92975.00
2023-03-11T01:24:39.322Z,92959.00
2023-03-11T01:28:39.383Z,92963.00
2023-03-11T01:32:39.594Z,92967.00
2023-03-11T01:36:39.437Z,92955.00
2023-03-11T01:40:39.446Z,92949.00
2023-03-11T01:44:39.439Z,92957.00
2023-03-11T01:48:39.452Z,92955.00
2023-03-11T01:52:39.423Z,92961.00
2023-03-11T01:56:39.455Z,92953.00
2023-03-11T02:00:39.458Z,92957.00
2023-03-11T02:04:39.493Z,92965.00
2023-03-11T02:08:39.562Z,92953.00
2023-03-11T02:12:39.519Z,92947.00
2023-03-11T02:16:39.521Z,92947.00
2023-03-11T02:20:39.551Z,92965.00
2023-03-11T02:24:39.523Z,92967.00
2023-03-11T02:28:39.524Z,92967.00
2023-03-11T02:32:39.556Z,92973.00
2023-03-11T02:36:39.515Z,92969.00
2023-03-11T02:40:39.507Z,92961.00
2023-03-11T02:44:39.488Z,92961.00
2023-03-11T02:48:39.508Z,92973.00
2023-03-11T02:52:39.511Z,92989.00
2023-03-11T02:56:39.517Z,92985.00
2023-03-11T03:00:39.570Z,92991.00
2023-03-11T03:04:39.514Z,92981.00
2023-03-11T03:08:39.534Z,92981.00
2023-03-11T03:12:39.513Z,92985.00
2023-03-11T03:16:39.626Z,93002.00
2023-03-11T03:20:39.525Z,92995.00
2023-03-11T03:24:39.532Z,93006.00
2023-03-11T03:28:39.502Z,93018.00
2023-03-11T03:32:39.597Z,93014.00
2023-03-11T03:36:39.610Z,93014.00
2023-03-11T03:40:39.588Z,93002.00
2023-03-11T03:44:39.604Z,93002.00
2023-03-11T03:48:39.626Z,93024.00
2023-03-11T03:52:39.592Z,93042.00
2023-03-11T03:56:39.611Z,93051.00
2023-03-11T04:00:39.677Z,93042.00
2023-03-11T04:04:39.662Z,93053.00
2023-03-11T04:08:39.689Z,93045.00
2023-03-11T04:12:39.778Z,93034.00
2023-03-11T04:16:39.789Z,93040.00
2023-03-11T04:20:39.863Z,93038.00
2023-03-11T04:24:39.959Z,93049.00
2023-03-11T04:28:39.979Z,93049.00
2023-03-11T04:32:40.144Z,93055.00
2023-03-11T04:36:40.175Z,93061.00
2023-03-11T04:40:40.399Z,93061.00
2023-03-11T04:44:40.328Z,93079.00
2023-03-11T04:48:40.441Z,93073.00
2023-03-11T04:52:40.519Z,93077.00
2023-03-11T04:56:40.623Z,93085.00
2023-03-11T05:00:40.905Z,93081.00
2023-03-11T05:04:41.066Z,93083.00
2023-03-11T05:08:41.127Z,93098.00
2023-03-11T05:12:41.316Z,93108.00
2023-03-11T05:16:41.522Z,93120.00
2023-03-11T05:20:41.701Z,93122.00
2023-03-11T05:24:41.675Z,93128.00
2023-03-11T05:28:41.644Z,93136.00
2023-03-11T05:32:41.656Z,93145.00
2023-03-11T05:36:41.533Z,93141.00
2023-03-11T05:40:41.536Z,93137.00
2023-03-11T05:44:41.488Z,93145.00
2023-03-11T05:48:41.454Z,93149.00
2023-03-11T05:52:41.429Z,93145.00
2023-03-11T05:56:41.370Z,93155.00
2023-03-11T06:00:41.343Z,93167.00
2023-03-11T06:04:41.607Z,93177.00
2023-03-11T06:08:41.467Z,93184.00
2023-03-11T06:12:41.453Z,93186.00
2023-03-11T06:16:41.420Z,93177.00
2023-03-11T06:20:41.361Z,93177.00
2023-03-11T06:24:41.354Z,93177.00
2023-03-11T06:28:41.295Z,93181.00
2023-03-11T06:32:41.245Z,93194.00
2023-03-11T06:36:41.202Z,93192.00
2023-03-11T06:40:41.178Z,93194.00
2023-03-11T06:44:41.175Z,93198.00
2023-03-11T06:48:41.326Z,93206.00
2023-03-11T06:52:41.508Z,93214.00
2023-03-11T06:56:41.695Z,93218.00
2023-03-11T07:00:42.814Z,93224.00
2023-03-11T07:04:42.113Z,93226.00
2023-03-11T07:08:42.325Z,93226.00
2023-03-11T07:12:42.557Z,93231.00
2023-03-11T07:16:42.868Z,93233.00
2023-03-11T07:20:42.949Z,93241.00
2023-03-11T07:24:43.175Z,93255.00
2023-03-11T07:28:43.393Z,93259.00
2023-03-11T07:32:44.053Z,93259.00
2023-03-11T07:36:43.762Z,93267.00
2023-03-11T07:40:44.030Z,93271.00
2023-03-11T07:44:44.184Z,93282.00
2023-03-11T07:48:44.432Z,93275.00
2023-03-11T07:52:44.612Z,93277.00
2023-03-11T07:56:44.820Z,93280.00
2023-03-11T08:00:45.002Z,93286.00
2023-03-11T08:04:45.189Z,93286.00
2023-03-11T08:08:45.381Z,93296.00
2023-03-11T08:12:45.550Z,93290.00
2023-03-11T08:16:45.778Z,93298.00
2023-03-11T08:20:45.966Z,93300.00
2023-03-11T08:24:46.175Z,93304.00
2023-03-11T08:28:46.398Z,93306.00
2023-03-11T08:32:46.640Z,93306.00
2023-03-11T08:36:46.790Z,93296.00
2023-03-11T08:40:47.027Z,93304.00
2023-03-11T08:44:47.204Z,93306.00
2023-03-11T08:48:47.508Z,93304.00
2023-03-11T08:52:47.576Z,93304.00
2023-03-11T08:56:47.761Z,93288.00
2023-03-11T09:00:47.940Z,93302.00
2023-03-11T09:04:48.126Z,93306.00
2023-03-11T09:08:48.262Z,93306.00
2023-03-11T09:12:48.431Z,93294.00
2023-03-11T09:16:48.560Z,93296.00
2023-03-11T09:20:48.738Z,93300.00
2023-03-11T09:24:48.941Z,93298.00
2023-03-11T09:28:49.393Z,93296.00
2023-03-11T09:32:49.185Z,93294.00
2023-03-11T09:36:49.337Z,93318.00
2023-03-11T09:40:49.509Z,93316.00
2023-03-11T09:44:49.626Z,93320.00
2023-03-11T09:48:49.784Z,93322.00
2023-03-11T09:52:49.961Z,93308.00
2023-03-11T09:56:50.106Z,93312.00
2023-03-11T10:00:50.212Z,93325.00
2023-03-11T10:04:50.310Z,93320.00
2023-03-11T10:08:50.393Z,93318.00
2023-03-11T10:12:50.436Z,93318.00
2023-03-11T10:16:50.491Z,93325.00
2023-03-11T10:20:50.505Z,93324.00
2023-03-11T10:24:50.523Z,93325.00
2023-03-11T10:28:50.655Z,93324.00
2023-03-11T10:32:50.784Z,93324.00
2023-03-11T10:36:50.806Z,93324.00
2023-03-11T10:40:50.885Z,93327.00
2023-03-11T10:44:52.546Z,93331.00
2023-03-11T10:48:51.032Z,93331.00
2023-03-11T10:52:51.001Z,93331.00
2023-03-11T10:56:50.978Z,93331.00
2023-03-11T11:00:50.979Z,93329.00
2023-03-11T11:04:50.881Z,93325.00
2023-03-11T11:08:50.854Z,93324.00
2023-03-11T11:12:50.830Z,93318.00
2023-03-11T11:16:50.840Z,93320.00
2023-03-11T11:20:50.767Z,93314.00
2023-03-11T11:24:50.833Z,93314.00
2023-03-11T11:28:50.710Z,93320.00
2023-03-11T11:32:50.728Z,93318.00
2023-03-11T11:36:50.622Z,93320.00
2023-03-11T11:40:50.619Z,93318.00
2023-03-11T11:44:50.639Z,93316.00
2023-03-11T11:48:50.712Z,93316.00
2023-03-11T11:52:50.833Z,93312.00
2023-03-11T11:56:50.844Z,93302.00
2023-03-11T12:00:50.892Z,93290.00
2023-03-11T12:04:50.902Z,93277.00
2023-03-11T12:08:50.914Z,93269.00
2023-03-11T12:12:50.945Z,93259.00
2023-03-11T12:16:50.998Z,93261.00
2023-03-11T12:20:50.987Z,93255.00
2023-03-11T12:24:50.939Z,93255.00
2023-03-11T12:28:50.882Z,93245.00
2023-03-11T12:32:50.882Z,93245.00
2023-03-11T12:36:50.827Z,93235.00
2023-03-11T12:40:50.826Z,93231.00
2023-03-11T12:44:50.766Z,93228.00
2023-03-11T12:48:50.754Z,93224.00
2023-03-11T12:52:50.705Z,93222.00
2023-03-11T12:56:50.676Z,93222.00
2023-03-11T13:00:50.672Z,93216.00
2023-03-11T13:04:50.605Z,93214.00
2023-03-11T13:08:50.562Z,93212.00
2023-03-11T13:12:50.516Z,93218.00
2023-03-11T13:16:50.496Z,93212.00
2023-03-11T13:20:50.495Z,93212.00
2023-03-11T13:24:50.400Z,93208.00
2023-03-11T13:28:50.364Z,93212.00
2023-03-11T13:32:50.410Z,93210.00
2023-03-11T13:36:50.308Z,93210.00
2023-03-11T13:40:50.291Z,93216.00
2023-03-11T13:44:50.441Z,93218.00
2023-03-11T13:48:50.586Z,93226.00
2023-03-11T13:52:50.780Z,93237.00
2023-03-11T13:56:50.929Z,93231.00
2023-03-11T14:00:51.198Z,93239.00
2023-03-11T14:04:51.082Z,93237.00
2023-03-11T14:08:51.073Z,93237.00
2023-03-11T14:12:51.050Z,93249.00
2023-03-11T14:16:51.044Z,93253.00
2023-03-11T14:20:50.955Z,93259.00
2023-03-11T14:24:50.884Z,93271.00
2023-03-11T14:28:50.866Z,93265.00
2023-03-11T14:32:50.851Z,93271.00
2023-03-11T14:36:50.787Z,93273.00
2023-03-11T14:40:51.710Z,93278.00
2023-03-11T14:44:50.726Z,93296.00
2023-03-11T14:48:50.690Z,93294.00
2023-03-11T14:52:50.610Z,93298.00
2023-03-11T14:56:50.585Z,93304.00
2023-03-11T15:00:50.553Z,93310.00
2023-03-11T15:04:50.535Z,93322.00
2023-03-11T15:08:50.502Z,93325.00
2023-03-11T15:12:50.419Z,93325.00
2023-03-11T15:16:50.486Z,93331.00
2023-03-11T15:20:50.355Z,93325.00
2023-03-11T15:24:50.346Z,93324.00
2023-03-11T15:28:50.651Z,93335.00
2023-03-11T15:32:50.721Z,93339.00
2023-03-11T15:36:50.398Z,93337.00
2023-03-11T15:40:50.578Z,93347.00
2023-03-11T15:44:50.718Z,93363.00
2023-03-11T15:48:50.909Z,93376.00
2023-03-11T15:52:50.994Z,93380.00
2023-03-11T15:56:51.194Z,93396.00
2023-03-11T16:00:51.376Z,93400.00
2023-03-11T16:04:51.693Z,93402.00
2023-03-11T16:08:51.756Z,93412.00
2023-03-11T16:12:51.793Z,93410.00
2023-03-11T16:16:51.649Z,93421.00
2023-03-11T16:20:51.665Z,93435.00
2023-03-11T16:24:51.618Z,93441.00
2023-03-11T16:28:51.544Z,93445.00
2023-03-11T16:32:51.564Z,93459.00
2023-03-11T16:36:51.615Z,93459.00
2023-03-11T16:40:51.445Z,93468.00
2023-03-11T16:44:51.401Z,93472.00
2023-03-11T16:48:51.485Z,93459.00
2023-03-11T16:52:51.652Z,93474.00
2023-03-11T16:56:51.798Z,93484.00
2023-03-11T17:00:52.699Z,93500.00
2023-03-11T17:04:52.188Z,93488.00
2023-03-11T17:08:52.307Z,93492.00
2023-03-11T17:12:52.441Z,93506.00
2023-03-11T17:16:52.575Z,93511.00
2023-03-11T17:20:52.706Z,93511.00
2023-03-11T17:24:52.987Z,93519.00
2023-03-11T17:28:53.150Z,93527.00
2023-03-11T17:32:53.357Z,93541.00
2023-03-11T17:36:53.527Z,93553.00
2023-03-11T17:40:53.741Z,93561.00
2023-03-11T17:44:53.846Z,93572.00
2023-03-11T17:48:53.923Z,93584.00
2023-03-11T17:52:54.000Z,93586.00
2023-03-11T17:56:54.128Z,93588.00
2023-03-11T18:00:54.301Z,93598.00
2023-03-11T18:04:54.381Z,93606.00
2023-03-11T18:08:54.419Z,93619.00
2023-03-11T18:12:54.709Z,93633.00
2023-03-11T18:16:54.835Z,93645.00
2023-03-11T18:20:54.870Z,93653.00
2023-03-11T18:24:54.970Z,93664.00
2023-03-11T18:28:55.154Z,93678.00
2023-03-11T18:32:55.339Z,93682.00
2023-03-11T18:36:55.324Z,93690.00
2023-03-11T18:40:55.739Z,93697.00
2023-03-11T18:44:55.521Z,93705.00
2023-03-11T18:48:55.585Z,93717.00
2023-03-11T18:52:55.628Z,93719.00
2023-03-11T18:56:55.762Z,93719.00
2023-03-11T19:00:55.832Z,93727.00
2023-03-11T19:04:55.940Z,93727.00
2023-03-11T19:08:55.960Z,93735.00
2023-03-11T19:12:56.098Z,93737.00
2023-03-11T19:16:56.379Z,93739.00
2023-03-11T19:20:56.312Z,93749.00
2023-03-11T19:24:56.482Z,93754.00
2023-03-11T19:28:56.555Z,93762.00
2023-03-11T19:32:56.789Z,93762.00
2023-03-11T19:36:56.912Z,93764.00
2023-03-11T19:40:57.047Z,93766.00
2023-03-11T19:44:57.219Z,93774.00
2023-03-11T19:48:57.340Z,93778.00
2023-03-11T19:52:57.527Z,93778.00
2023-03-11T19:56:57.655Z,93786.00
2023-03-11T20:00:57.854Z,93790.00
2023-03-11T20:04:58.103Z,93796.00
2023-03-11T20:08:58.148Z,93796.00
2023-03-11T20:13:02.487Z,93792.00
2023-03-11T20:16:58.173Z,93801.00
2023-03-11T20:20:58.158Z,93809.00
2023-03-11T20:24:58.077Z,93811.00
2023-03-11T20:28:58.050Z,93811.00
2023-03-11T20:32:58.092Z,93809.00
2023-03-11T20:36:57.933Z,93817.00
2023-03-11T20:40:57.963Z,93823.00
2023-03-11T20:44:58.316Z,93827.00
2023-03-11T20:48:58.107Z,93831.00
2023-03-11T20:52:58.091Z,93835.00
2023-03-11T20:56:58.111Z,93833.00
2023-03-11T21:00:58.109Z,93833.00
2023-03-11T21:04:58.104Z,93835.00
2023-03-11T21:08:58.188Z,93835.00
2023-03-11T21:12:58.274Z,93837.00
2023-03-11T21:16:58.348Z,93837.00
2023-03-11T21:20:58.305Z,93843.00
2023-03-11T21:24:58.374Z,93848.00
2023-03-11T21:28:58.331Z,93850.00
2023-03-11T21:32:58.395Z,93852.00
2023-03-11T21:36:58.241Z,93852.00
2023-03-11T21:40:58.425Z,93854.00
2023-03-11T21:44:58.357Z,93860.00
2023-03-11T21:48:58.490Z,93864.00
2023-03-11T21:52:58.554Z,93856.00
2023-03-11T21:56:58.503Z,93864.00
2023-03-11T22:00:58.657Z,93862.00
2023-03-11T22:04:58.739Z,93864.00
2023-03-11T22:08:58.705Z,93862.00
2023-03-11T22:12:58.805Z,93862.00
2023-03-11T22:16:58.747Z,93868.00
2023-03-11T22:20:58.763Z,93876.00
2023-03-11T22:24:58.730Z,93882.00
2023-03-11T22:28:58.803Z,93882.00
2023-03-11T22:32:58.820Z,93890.00
2023-03-11T22:36:58.890Z,93886.00
2023-03-11T22:40:58.909Z,93886.00
2023-03-11T22:44:58.852Z,93891.00
2023-03-11T22:48:58.914Z,93893.00
2023-03-11T22:52:58.934Z,93895.00
2023-03-11T22:56:58.953Z,93903.00
2023-03-11T23:00:59.014Z,93903.00
2023-03-11T23:04:59.013Z,93907.00
2023-03-11T23:08:59.020Z,93903.00
2023-03-11T23:12:59.051Z,93911.00
2023-03-11T23:16:59.108Z,93911.00
2023-03-11T23:20:59.080Z,93913.00
2023-03-11T23:24:59.157Z,93915.00
2023-03-11T23:28:59.091Z,93921.00
2023-03-11T23:32:59.210Z,93919.00
2023-03-11T23:36:59.079Z,93923.00
2023-03-11T23:40:59.093Z,93927.00
2023-03-11T23:44:59.111Z,93927.00
2023-03-11T23:48:59.127Z,93927.00
2023-03-11T23:52:59.114Z,93929.00
2023-03-11T23:56:59.123Z,93937.00
